Fort Carson, CO

5:08 PM MDT on April 26, 2015 (GMT -0600)
Butts Army Air Field | | Change Station
CLOSE
Current Station
Airport
Location: Fort Carson,
Elevation: 5869 ft
Nearby Weather Stations
Active Advisory: Special Statement Active Notice: Public Information Statement

Elev 5869 ft 38.68 °N, 104.76 °W | Updated 5 minutes ago

Overcast
Overcast
43 °F
Feels Like 36 °F
N
14
Wind Variable Wind from ESE

Today
High -- | Low -- °F
--% Chance of Precip.
Yesterday
High -- | Low -- °F
Precip. -- in
6:08 AM 7:46 PM
First Quarter, 59% visible
Pressure 29.89 in
Visibility 2.5 miles
Clouds Overcast 400 ft
Windchill 36 °F
Dew Point 43 °F
Humidity 100%
Rainfall 0.12 in
Snow Depth Not available.
UV 1 out of 12
Pollen 4.70 out of 12
Air Quality Not available.
Flu Activity Sporadic
SPECI KFCS 262303Z AUTO 11012KT 2 1/2SM -RA BR OVC004 06/06 A2989 RMK AO2 VIS 2V2 1/2

More Conditions Fewer Conditions

Pressure 29.89 in
Visibility 2.5 miles
Clouds Overcast 400 ft
Windchill 36 °F
Dew Point 43 °F
Humidity 100%
Rainfall 0.12 in
Snow Depth Not available.
UV 1 out of 12
Pollen 4.70 out of 12
Air Quality Not available.
Flu Activity Sporadic
SPECI KFCS 262303Z AUTO 11012KT 2 1/2SM -RA BR OVC004 06/06 A2989 RMK AO2 VIS 2V2 1/2

More Conditions Fewer Conditions

The full scope of the disaster following a powerful 7.8-magnitude earthquake in Nepal may not come into view for days, but global charities are already sending emergency aid. Click to see how you can help.

10-Day Weather Forecast

Almanac

Astronomy

Apr. 26, 2015 Rise Set
Actual Time
Civil Twilight
Nautical Twilight
Astronomical Twilight
Moon
Length of Visible Light
Length of Day
Tomorrow will be .
, % of the Moon is Illuminated

Today's Extremes

State Highs State Lows

Community

WunderPhotos

Upload Photos

1,817,154 photos uploaded!

WunderBlogs® & News

Nearby

Air Quality

  Air Quality AQ Index Pollutant
Not available.

Snow Depth

Station Depth Elevation

Earthquake Activity

City Distance Mag. Time & Date
Minimum magnitude displayed is 2.5.

Coastal Water Temperatures

Place Temperature

Stations

Nearby Weather Stations

Station Location Temp. Windchill Dew Point Humidity Wind Precip. Elev Updated Type
                   
Special Statement
Statement as of 4:58 PM MDT on April 26, 2015

... Significant weather advisory for west central El Paso County until
530 PM MDT...

At 456 PM MDT... National Weather Service Doppler radar indicated a
strengthening shower over western Colorado Springs... moving
northwest at 10 mph.

Rainfall amounts up to .20 inches will be possible on the Waldo burn
scar across the lower elevations below 7500 feet... with snow falling
above this elevation. Runoff in drainages... and creeks will
continue to flow through 600 PM.

Locations impacted include...
western Colorado Springs... Manitou Springs... Green Mountain Falls...
Cascade and Chipita Park.

Lat... Lon 3887 10481 3881 10491 3893 10502 3902 10495
time... Mot... loc 2256z 137deg 9kt 3887 10490


Moore